Torrelavega, Spain
Current Conditions -  °F | °C
As of 1:00 PM on Thursday 18 Dec 2014 (Local Time) from LEXJ Reporting Station
Broken Clouds Broken Clouds  
Wind Chill: 57°   Ceiling: 3800
Heat Index: 57°   Visibility: 6mi
Dew Point: 45°   Wind: 8mph
Humidity: 63%   Direction: 250°WSW
Pressure: 30.45"   Gusts: NA
Location:  43.35°N, 4.05°W
Report Text: LEXJ 181200Z 25007KT 220V280 9999 BKN038 14/07 Q1031
Loading
Personal Weather Stations






























Interactive Weather Map New forecast layout! Learn more

10-Day Weather Forecast

Advertisements
Track Severe Weather on mobile